Lingleville, TX (76461)

8:49 PM CDT on August 29, 2015 (GMT -0500)
Cripplegate Ranch | | Change Station
CLOSE
Current Station
Personal Weather Station
Location: Stephenville, TX
Elevation: 1414 ft
Nearby Weather Stations

Elev 1414 ft 32.30 °N, 98.28 °W | Updated 9 seconds ago

Mostly Cloudy
Mostly Cloudy
80.1 °F
Feels Like 81 °F
N
1.8
Wind Variable Wind from South
Gusts 2.5 mph

Today
High -- | Low -- °F
--% Chance of Precip.
Yesterday
High -- | Low -- °F
Precip. -- in
7:06 AM 8:01 PM
Full, 100% visible
Pressure 30.03 in
Visibility 10.0 miles
Clouds Clear
Heat Index 81 °F
Dew Point 60 °F
Humidity 50%
Rainfall 0.00 in
Snow Depth Not available.
UV 0.0 out of 12
Pollen 8.50 out of 12
Air Quality Not available.
Flu Activity Not available.
METAR KSEP 300135Z AUTO 28003KT 10SM CLR 28/17 A3003 RMK AO2 T02750165
Pressure 30.03 in
Visibility 10.0 miles
Clouds Clear
Heat Index 81 °F
Dew Point 60 °F
Humidity 50%
Rainfall 0.00 in
Snow Depth Not available.
UV 0.0 out of 12
Pollen 8.50 out of 12
Air Quality Not available.
Flu Activity Not available.
METAR KSEP 300135Z AUTO 28003KT 10SM CLR 28/17 A3003 RMK AO2 T02750165
Nowcast | as of 5:58 PM CDT on August 29, 2015

Isolated showers and thunderstorms near Jacksboro and Mineral Wells will continue moving eastward around 15 mph through the evening hours. Lightning and gusty downburst winds will be possible with the strongest activity. Additional showers and thunderstorms are possible across all of north and central Texas through the evening hours and overnight. Elsewhere...skies will be partly cloudy with temperatures falling into the mid 80s by 9pm.

×

10-Day Weather Forecast

×

Almanac

Astronomy

Aug. 29, 2015 Rise Set
Actual Time
Civil Twilight
Nautical Twilight
Astronomical Twilight
Moon
Length of Visible Light
Length of Day
Tomorrow will be .
, % of the Moon is Illuminated

Today's Extremes

State Highs State Lows

Community

WunderPhotos

Upload Photos

1,850,826 photos uploaded!

WunderBlogs® & News

Nearby

Air Quality

  Air Quality AQ Index Pollutant
Not available.

Snow Depth

Station Depth Elevation

Earthquake Activity

City Distance Mag. Time & Date
Minimum magnitude displayed is 2.5.

Coastal Water Temperatures

Place Temperature

Stations

Nearby Weather Stations

Station Location Temp. Windchill Dew Point Humidity Wind Precip. Elev Updated Type